createdAt,value
2019-04-27T00:01:23.294Z,98606.30
2019-04-27T00:06:29.788Z,98621.89
2019-04-27T00:11:45.481Z,98637.92
2019-04-27T00:17:12.910Z,98651.66
2019-04-27T00:22:28.455Z,98638.41
2019-04-27T00:27:33.934Z,98621.83
2019-04-27T00:32:39.888Z,98620.00
2019-04-27T00:37:54.922Z,98616.98
2019-04-27T00:43:00.255Z,98608.08
2019-04-27T00:48:05.891Z,98608.41
2019-04-27T00:53:16.764Z,98609.86
2019-04-27T00:58:33.840Z,98610.66
2019-04-27T01:04:03.627Z,98611.19
2019-04-27T01:09:13.361Z,98616.36
2019-04-27T01:14:19.107Z,98612.47
2019-04-27T01:19:24.584Z,98612.65
2019-04-27T01:24:30.724Z,98608.17
2019-04-27T01:29:36.757Z,98610.70
2019-04-27T01:34:42.229Z,98606.45
2019-04-27T01:39:48.597Z,98602.28
2019-04-27T01:44:55.104Z,98600.82
2019-04-27T01:50:00.641Z,98601.44
2019-04-27T01:55:08.649Z,98597.30
2019-04-27T02:00:40.469Z,98598.00
2019-04-27T02:05:56.162Z,98610.39
2019-04-27T02:11:03.581Z,98600.53
2019-04-27T02:16:09.419Z,98605.66
2019-04-27T02:21:14.872Z,98603.31
2019-04-27T02:26:21.562Z,98599.52
2019-04-27T02:31:35.871Z,98600.45
2019-04-27T02:36:41.278Z,98605.72
2019-04-27T02:41:49.885Z,98605.98
2019-04-27T02:46:55.365Z,98603.98
2019-04-27T02:52:09.546Z,98609.87
2019-04-27T02:57:15.417Z,98609.10
2019-04-27T03:02:45.474Z,98602.39
2019-04-27T03:07:50.924Z,98605.48
2019-04-27T03:13:03.820Z,98619.56
2019-04-27T03:18:13.982Z,98615.20
2019-04-27T03:23:20.014Z,98620.31
2019-04-27T03:28:26.131Z,98619.29
2019-04-27T03:33:32.890Z,98620.19
2019-04-27T03:38:39.858Z,98628.05
2019-04-27T03:43:45.501Z,98631.78
2019-04-27T03:48:51.861Z,98622.34
2019-04-27T03:54:12.642Z,98621.06
2019-04-27T03:59:42.856Z,98616.58
2019-04-27T04:04:50.714Z,98634.30
2019-04-27T04:09:55.586Z,98650.33
2019-04-27T04:15:00.988Z,98647.88
2019-04-27T04:20:10.132Z,98651.08
2019-04-27T04:25:16.565Z,98647.58
2019-04-27T04:30:22.748Z,98647.33
2019-04-27T04:35:32.439Z,98655.30
2019-04-27T04:40:41.906Z,98660.73
2019-04-27T04:45:56.480Z,98659.00
2019-04-27T04:51:02.336Z,98653.55
2019-04-27T04:56:08.581Z,98662.38
2019-04-27T05:01:16.915Z,98665.30
2019-04-27T05:06:25.616Z,98661.44
2019-04-27T05:11:31.142Z,98662.28
2019-04-27T05:16:39.093Z,98663.97
2019-04-27T05:21:45.681Z,98661.44
2019-04-27T05:26:51.631Z,98672.16
2019-04-27T05:31:59.177Z,98670.39
2019-04-27T05:37:05.724Z,98675.61
2019-04-27T05:42:16.969Z,98677.29
2019-04-27T05:47:43.361Z,98682.53
2019-04-27T05:52:49.648Z,98685.74
2019-04-27T05:57:59.165Z,98681.02
2019-04-27T06:03:08.985Z,98688.76
2019-04-27T06:08:14.330Z,98684.58
2019-04-27T06:13:20.124Z,98681.53
2019-04-27T06:18:27.073Z,98678.62
2019-04-27T06:23:33.083Z,98683.69
2019-04-27T06:28:53.780Z,98681.63
2019-04-27T06:34:01.042Z,98685.78
2019-04-27T06:39:09.926Z,98670.55
2019-04-27T06:44:15.554Z,98662.95
2019-04-27T06:49:20.880Z,98675.52
2019-04-27T06:54:28.682Z,98672.83
2019-04-27T06:59:33.806Z,98675.23
2019-04-27T07:04:41.868Z,98680.14
2019-04-27T07:09:49.286Z,98671.07
2019-04-27T07:14:55.196Z,98668.92
2019-04-27T07:20:02.613Z,98669.97
2019-04-27T07:25:09.067Z,98669.25
2019-04-27T07:30:15.670Z,98678.05
2019-04-27T07:35:22.725Z,98677.94
2019-04-27T07:40:30.340Z,98668.98
2019-04-27T07:45:39.578Z,98671.20
2019-04-27T07:50:46.240Z,98671.37
2019-04-27T07:55:51.489Z,98666.25
2019-04-27T08:00:57.122Z,98668.36
2019-04-27T08:06:02.602Z,98654.08
2019-04-27T08:11:08.846Z,98653.28
2019-04-27T08:16:15.429Z,98656.57
2019-04-27T08:21:20.950Z,98649.74
2019-04-27T08:26:32.377Z,98650.81
2019-04-27T08:31:55.351Z,98650.00
2019-04-27T08:37:00.854Z,98659.80
2019-04-27T08:42:06.570Z,98668.41
2019-04-27T08:47:15.168Z,98655.39
2019-04-27T08:52:20.620Z,98660.20
2019-04-27T08:57:25.852Z,98662.59
2019-04-27T09:02:44.437Z,98655.19
2019-04-27T09:07:59.779Z,98661.61
2019-04-27T09:13:15.704Z,98659.86
2019-04-27T09:18:23.051Z,98657.36
2019-04-27T09:23:28.763Z,98653.34
2019-04-27T09:28:34.015Z,98648.09
2019-04-27T09:33:39.520Z,98643.03
2019-04-27T09:38:46.507Z,98641.44
2019-04-27T09:43:53.133Z,98650.73
2019-04-27T09:48:58.539Z,98642.16
2019-04-27T09:54:05.869Z,98639.03
2019-04-27T09:59:11.845Z,98637.80
2019-04-27T10:04:21.125Z,98634.70
2019-04-27T10:09:29.519Z,98628.87
2019-04-27T10:14:34.011Z,98625.75
2019-04-27T10:19:39.276Z,98625.45
2019-04-27T10:24:44.909Z,98623.70
2019-04-27T10:29:50.438Z,98615.85
2019-04-27T10:34:56.214Z,98617.59
2019-04-27T10:40:01.576Z,98615.80
2019-04-27T10:45:13.724Z,98616.59
2019-04-27T10:50:19.999Z,98613.14
2019-04-27T10:55:26.200Z,98615.12
2019-04-27T11:00:39.864Z,98616.77
2019-04-27T11:06:05.996Z,98611.72
2019-04-27T11:11:12.472Z,98605.14
2019-04-27T11:16:20.287Z,98604.27
2019-04-27T11:21:26.235Z,98604.62
2019-04-27T11:26:33.278Z,98600.58
2019-04-27T11:31:38.542Z,98600.16
2019-04-27T11:36:55.946Z,98598.84
2019-04-27T11:42:01.363Z,98599.74
2019-04-27T11:47:06.847Z,98594.55
2019-04-27T11:52:16.202Z,98591.66
2019-04-27T11:57:28.500Z,98589.66
2019-04-27T12:02:35.801Z,98588.95
2019-04-27T12:07:47.871Z,98581.44
2019-04-27T12:12:56.324Z,98584.56
2019-04-27T12:18:02.577Z,98583.47
2019-04-27T12:23:07.976Z,98578.77
2019-04-27T12:28:23.569Z,98572.20
2019-04-27T12:33:30.412Z,98563.46
2019-04-27T12:38:36.646Z,98561.80
2019-04-27T12:43:46.739Z,98554.36
2019-04-27T12:48:55.314Z,98546.79
2019-04-27T12:54:08.932Z,98546.08
2019-04-27T12:59:32.058Z,98544.53
2019-04-27T13:04:38.415Z,98532.33
2019-04-27T13:09:46.046Z,98535.81
2019-04-27T13:14:51.634Z,98527.45
2019-04-27T13:19:57.376Z,98522.23
2019-04-27T13:25:02.698Z,98518.03
2019-04-27T13:30:10.616Z,98510.44
2019-04-27T13:35:16.565Z,98510.88
2019-04-27T13:40:22.497Z,98513.42
2019-04-27T13:45:38.627Z,98496.77
2019-04-27T13:50:47.990Z,98497.34
2019-04-27T13:55:56.613Z,98496.78
2019-04-27T14:01:02.846Z,98502.27
2019-04-27T14:06:08.446Z,98502.63
2019-04-27T14:11:15.555Z,98497.11
2019-04-27T14:16:21.753Z,98491.98
2019-04-27T14:21:34.413Z,98489.59
2019-04-27T14:26:40.795Z,98481.44
2019-04-27T14:31:49.695Z,98481.37
2019-04-27T14:36:58.752Z,98481.98
2019-04-27T14:42:04.577Z,98473.72
2019-04-27T14:47:13.371Z,98461.39
2019-04-27T14:52:20.370Z,98458.94
2019-04-27T14:57:29.189Z,98461.83
2019-04-27T15:02:35.028Z,98466.75
2019-04-27T15:07:40.500Z,98461.37
2019-04-27T15:12:45.821Z,98458.25
2019-04-27T15:17:51.240Z,98468.69
2019-04-27T15:22:57.940Z,98474.16
2019-04-27T15:28:12.197Z,98471.23
2019-04-27T15:33:36.213Z,98468.37
2019-04-27T15:38:51.200Z,98462.38
2019-04-27T15:43:55.394Z,98462.93
2019-04-27T15:49:03.173Z,98461.53
2019-04-27T15:54:12.012Z,98457.62
2019-04-27T15:59:21.125Z,98461.01
2019-04-27T16:04:28.239Z,98448.95
2019-04-27T16:09:33.625Z,98451.41
2019-04-27T16:14:40.983Z,98457.77
2019-04-27T16:19:50.231Z,98443.60
2019-04-27T16:24:58.120Z,98445.17
2019-04-27T16:30:09.584Z,98437.84
2019-04-27T16:35:14.049Z,98440.11
2019-04-27T16:40:24.459Z,98442.23
2019-04-27T16:45:28.768Z,98440.48
2019-04-27T16:50:34.217Z,98430.83
2019-04-27T16:55:40.311Z,98420.95
2019-04-27T17:00:47.644Z,98413.43
2019-04-27T17:05:53.199Z,98409.66
2019-04-27T17:11:08.047Z,98432.53
2019-04-27T17:16:18.867Z,98435.49
2019-04-27T17:21:25.717Z,98434.99
2019-04-27T17:26:31.586Z,98440.33
2019-04-27T17:31:40.282Z,98445.30
2019-04-27T17:36:48.466Z,98440.88
2019-04-27T17:41:55.368Z,98443.31
2019-04-27T17:47:01.651Z,98459.97
2019-04-27T17:52:08.777Z,98446.58
2019-04-27T17:57:17.953Z,98454.59
2019-04-27T18:02:23.827Z,98459.32
2019-04-27T18:07:34.870Z,98467.13
2019-04-27T18:12:39.026Z,98468.80
2019-04-27T18:17:50.090Z,98476.22
2019-04-27T18:22:58.934Z,98485.07
2019-04-27T18:28:15.992Z,98492.55
2019-04-27T18:33:18.547Z,98496.12
2019-04-27T18:38:25.645Z,98537.09
2019-04-27T18:43:31.187Z,98554.50
2019-04-27T18:49:01.320Z,98550.73
2019-04-27T18:54:08.146Z,98565.75
2019-04-27T18:59:14.718Z,98566.01
2019-04-27T19:04:20.242Z,98577.45
2019-04-27T19:09:25.680Z,98580.65
2019-04-27T19:14:31.346Z,98578.53
2019-04-27T19:19:36.607Z,98572.95
2019-04-27T19:24:42.118Z,98581.98
2019-04-27T19:29:51.643Z,98587.69
2019-04-27T19:34:59.342Z,98590.67
2019-04-27T19:40:05.432Z,98587.96
2019-04-27T19:45:13.345Z,98590.28
2019-04-27T19:50:19.640Z,98591.00
2019-04-27T19:55:25.880Z,98595.56
2019-04-27T20:00:48.762Z,98605.99
2019-04-27T20:05:54.597Z,98607.64
2019-04-27T20:11:00.107Z,98602.62
2019-04-27T20:16:05.647Z,98611.98
2019-04-27T20:21:12.402Z,98619.55
2019-04-27T20:26:17.919Z,98610.26
2019-04-27T20:31:23.244Z,98609.80
2019-04-27T20:36:28.452Z,98618.14
2019-04-27T20:41:34.348Z,98625.86
2019-04-27T20:46:41.569Z,98635.33
2019-04-27T20:52:04.905Z,98623.06
2019-04-27T20:57:13.832Z,98620.61
2019-04-27T21:02:52.105Z,98630.21
2019-04-27T21:08:01.549Z,98621.94
2019-04-27T21:13:06.869Z,98631.53
2019-04-27T21:18:14.431Z,98633.14
2019-04-27T21:23:21.064Z,98636.33
2019-04-27T21:28:26.609Z,98630.23
2019-04-27T21:33:34.216Z,98636.14
2019-04-27T21:38:41.138Z,98642.19
2019-04-27T21:43:46.848Z,98638.66
2019-04-27T21:48:53.151Z,98646.59
2019-04-27T21:54:04.002Z,98645.65
2019-04-27T21:59:10.729Z,98647.92
2019-04-27T22:04:16.758Z,98648.16
2019-04-27T22:09:22.576Z,98660.27
2019-04-27T22:14:27.863Z,98655.50
2019-04-27T22:19:34.800Z,98659.48
2019-04-27T22:24:42.846Z,98660.31
2019-04-27T22:29:47.609Z,98669.84
2019-04-27T22:34:53.724Z,98669.43
2019-04-27T22:40:18.439Z,98671.05
2019-04-27T22:45:27.838Z,98671.41
2019-04-27T22:50:33.072Z,98672.80
2019-04-27T22:55:57.443Z,98671.20
2019-04-27T23:01:12.129Z,98672.78
2019-04-27T23:06:17.915Z,98667.50
2019-04-27T23:11:23.404Z,98675.42
2019-04-27T23:16:31.934Z,98683.48
2019-04-27T23:21:38.211Z,98685.08
2019-04-27T23:26:44.072Z,98690.36
2019-04-27T23:31:58.323Z,98686.05
2019-04-27T23:37:03.710Z,98706.55
2019-04-27T23:42:09.049Z,98715.45
2019-04-27T23:47:14.458Z,98709.12
2019-04-27T23:52:25.611Z,98707.57
2019-04-27T23:57:31.670Z,98709.86
